• Join FlightAware (Why Join?)
  • Login
  • US Flag 
11:08AM EST


 

Airport Tracker/Info


-or-


 

Live Flight TrackerFlight Track Log ✈ CJC5022 ✈ 13-May-2012 ✈ KIAH - KSHV

Flight Track Log - Related Links

Times and Time Zones

All times are in EDT time to prevent confusion due to time zone crossing. See the CJC5022 flight status page for this flight to view local times or setup timezone preferences in your user account.

Time Position Orientation Groundspeed Altitude Reporting Facility
EDT Latitude Longitude Course Direction KTS MPH feet Rate Location/Type
06:52PM 29.9828 -95.3586 20° North 137 158 700  Level Houston Center
06:54PM 30.0356 -95.3364 28° Northeast 159 183 2,600 900 Climbing Houston Center
06:55PM 30.0803 -95.3092 17° North 178 205 3,000 180 Climbing Houston Center
06:56PM 30.1433 -95.2875 18° North 228 262 3,000 60 Level Houston Center
06:57PM 30.2067 -95.2633 26° Northeast 230 265 3,200 840 Climbing Houston Center
06:59PM 30.2744 -95.2247 30° Northeast 211 243 5,300 1,320 Climbing Houston Center
07:00PM 30.3125 -95.1997 28° Northeast 181 208 6,600 1,200 Climbing Houston Center
07:01PM 30.3531 -95.1747 27° Northeast 162 186 7,800 1,140 Climbing Houston Center
07:02PM 30.3953 -95.1497 35° Northeast 162 186 8,900 1,020 Climbing Houston Center
07:03PM 30.4358 -95.1172 40° Northeast 168 193 9,900 960 Climbing Houston Center
07:04PM 30.4744 -95.0800 42° Northeast 168 193 10,900 960 Climbing Houston Center
07:05PM 30.5128 -95.0403 36° Northeast 180 207 11,900 900 Climbing Houston Center
07:06PM 30.5511 -95.0078 35° Northeast 180 207 12,800 780 Climbing Houston Center
07:07PM 30.5939 -94.9731 33° Northeast 180 207 13,500 660 Climbing Houston Center
07:08PM 30.6364 -94.9408 36° Northeast 180 207 14,200 660 Climbing Houston Center
07:09PM 30.6811 -94.9036 36° Northeast 180 207 14,900 360 Climbing Houston Center
07:10PM 30.7281 -94.8639 38° Northeast 185 213 15,000  Climbing Houston Center
07:11PM 30.7811 -94.8150 35° Northeast 211 243 15,000  Level Houston Center
07:12PM 30.8386 -94.7683 34° Northeast 229 264 15,000  Level Houston Center
07:13PM 30.9233 -94.7014 30° Northeast 254 292 15,000  Level Fort Worth Center
07:14PM 30.9831 -94.6608 30° Northeast 254 292 15,000  Level Fort Worth Center
07:15PM 31.0406 -94.6228 36° Northeast 248 285 15,000  Level Fort Worth Center
07:16PM 31.1019 -94.5700 33° Northeast 248 285 15,000  Level Fort Worth Center
07:17PM 31.1553 -94.5297 34° Northeast 238 274 15,000  Level Fort Worth Center
07:18PM 31.2108 -94.4867 34° Northeast 238 274 15,000  Level Fort Worth Center
07:19PM 31.2661 -94.4436 33° Northeast 232 267 15,000  Level Fort Worth Center
07:20PM 31.3194 -94.4031 37° Northeast 232 267 15,000  Level Fort Worth Center
07:21PM 31.3706 -94.3575 40° Northeast 232 267 15,000  Level Fort Worth Center
07:22PM 31.4194 -94.3097 35° Northeast 232 267 15,000  Level Fort Worth Center
07:23PM 31.4728 -94.2664 33° Northeast 232 267 15,000  Level Fort Worth Center
07:24PM 31.5258 -94.2256 37° Northeast 232 267 15,000  Level Fort Worth Center
07:25PM 31.5750 -94.1825 35° Northeast 232 267 15,000  Level Fort Worth Center
07:26PM 31.6281 -94.1392 36° Northeast 232 267 15,000  Level Fort Worth Center
07:27PM 31.6792 -94.0958 34° Northeast 232 267 15,000  Level Fort Worth Center
07:28PM 31.7283 -94.0575 36° Northeast 232 267 15,000 -120 Level Fort Worth Center
07:29PM 31.7814 -94.0117 32° Northeast 226 260 14,800 -840 Descending Fort Worth Center
07:30PM 31.8242 -93.9806 29° Northeast 226 260 13,400 -1,800 Descending Fort Worth Center
07:31PM 31.8836 -93.9417 26° Northeast 238 274 11,600 -1,920 Descending Fort Worth Center
07:32PM 31.9433 -93.9078 29° Northeast 232 267 9,900 -1,560 Descending Fort Worth Center
07:33PM 31.9986 -93.8711 25° Northeast 234 269 8,500 -1,320 Descending Fort Worth Center
07:34PM 32.0603 -93.8369 28° Northeast 237 273 7,300 -1,200 Descending Fort Worth Center
07:35PM 32.1178 -93.8003 26° Northeast 227 261 6,100 -1,080 Descending Fort Worth Center
07:36PM 32.1669 -93.7714 10° North 225 259 5,300 -1,020 Descending Fort Worth Center
07:37PM 32.2231 -93.7594 North 208 239 4,200 -1,080 Descending Fort Worth Center
07:38PM 32.2811 -93.7497 342° North 194 223 3,200 -720 Descending Fort Worth Center
07:39PM 32.3214 -93.7653 320° Northwest 169 194 2,800 -660 Descending Fort Worth Center
07:40PM 32.3600 -93.8031 360° North 177 204 1,900 -840 Descending Fort Worth Center
07:41PM 32.4164 -93.8033 355° North 139 160 800 -720 Descending Fort Worth Center
07:42PM 32.4331 -93.8050 355° North 171 197 400 -540 Descending Fort Worth Center